Time;durP1;ratioP1;P1;durP2;ratioP2;P2;SDS_P1;SDS_P2;PMS_P1;PMS_P2;Temp;Humidity;BMP_temperature;BMP_pressure;BME280_temperature;BME280_humidity;BME280_pressure;Samples;Min_cycle;Max_cycle;Signal;HPM_P1;HPM_P2
2023/04/16 00:00:25;;;;;;;7.80;2.20;;;10.40;1.00;;;;;;5117934;28;20070;-61
2023/04/16 00:02:50;;;;;;;4.68;1.60;;;10.40;1.00;;;;;;5117583;28;20019;-61
2023/04/16 00:05:16;;;;;;;6.65;1.67;;;10.40;1.00;;;;;;5116610;28;20027;-61
2023/04/16 00:07:42;;;;;;;4.57;2.15;;;10.30;1.00;;;;;;5117252;28;20144;-61
2023/04/16 00:10:08;;;;;;;7.75;2.40;;;10.30;1.00;;;;;;5117289;28;20023;-61
2023/04/16 00:12:34;;;;;;;6.10;2.47;;;10.40;1.00;;;;;;5116898;28;20303;-60
2023/04/16 00:14:59;;;;;;;7.45;2.47;;;10.50;1.00;;;;;;5117560;28;20307;-60
2023/04/16 00:17:25;;;;;;;9.23;2.58;;;10.40;1.00;;;;;;5116755;28;20080;-59
2023/04/16 00:19:51;;;;;;;7.35;2.40;;;10.40;1.00;;;;;;5116327;28;20047;-59
2023/04/16 00:22:17;;;;;;;3.60;2.13;;;10.30;1.00;;;;;;5116506;28;20024;-60
2023/04/16 00:24:43;;;;;;;8.50;2.17;;;10.40;1.00;;;;;;5099556;28;20027;-60
2023/04/16 00:27:08;;;;;;;6.78;2.30;;;10.40;1.00;;;;;;5116284;28;20035;-60
2023/04/16 00:29:34;;;;;;;3.72;1.77;;;10.40;1.00;;;;;;5117005;28;20031;-60
2023/04/16 00:32:00;;;;;;;6.13;1.90;;;10.50;1.00;;;;;;5116165;28;20414;-59
2023/04/16 00:34:26;;;;;;;4.60;1.80;;;10.60;1.00;;;;;;5116962;28;20036;-60
2023/04/16 00:36:52;;;;;;;5.07;1.80;;;10.50;1.00;;;;;;5116978;28;20023;-60
2023/04/16 00:39:18;;;;;;;4.50;1.63;;;10.40;1.00;;;;;;5117383;28;20030;-59
2023/04/16 00:41:45;;;;;;;5.05;1.50;;;10.40;1.00;;;;;;5116883;28;20104;-59
2023/04/16 00:44:11;;;;;;;7.50;1.65;;;10.40;1.00;;;;;;5117022;28;20036;-59
2023/04/16 00:46:37;;;;;;;3.08;1.13;;;10.50;1.00;;;;;;5116967;28;20089;-59
2023/04/16 00:49:03;;;;;;;6.63;1.50;;;10.40;1.00;;;;;;5117001;28;20043;-59
2023/04/16 00:51:30;;;;;;;8.77;1.33;;;10.40;1.40;;;;;;5116149;28;20039;-60
2023/04/16 00:53:56;;;;;;;7.13;1.48;;;10.40;1.00;;;;;;5116047;28;20032;-61
2023/04/16 00:56:23;;;;;;;2.67;1.08;;;10.50;1.00;;;;;;5116833;28;20028;-60
2023/04/16 00:58:49;;;;;;;5.05;1.48;;;10.40;1.00;;;;;;5116824;28;20035;-60
2023/04/16 01:01:15;;;;;;;4.55;1.55;;;10.40;6.90;;;;;;5116841;28;20111;-60
2023/04/16 01:03:46;;;;;;;4.22;1.25;;;10.50;1.00;;;;;;5116847;28;20142;-60
2023/04/16 01:06:13;;;;;;;4.25;1.67;;;10.50;1.00;;;;;;5116790;28;20023;-60
2023/04/16 01:08:39;;;;;;;5.25;1.75;;;10.60;1.00;;;;;;5102425;28;20076;-60
2023/04/16 01:11:05;;;;;;;5.40;1.52;;;10.50;1.00;;;;;;5119553;28;20440;-60
2023/04/16 01:13:32;;;;;;;4.10;1.77;;;10.50;1.00;;;;;;5120196;28;20027;-60
2023/04/16 01:15:58;;;;;;;8.05;1.88;;;10.50;1.70;;;;;;5120298;28;20016;-59
2023/04/16 01:18:25;;;;;;;3.92;1.83;;;10.60;1.00;;;;;;5120503;28;20035;-60
2023/04/16 01:20:51;;;;;;;6.40;1.70;;;10.50;1.00;;;;;;5120178;28;20035;-60
2023/04/16 01:23:18;;;;;;;5.35;1.55;;;10.50;1.00;;;;;;5120192;28;20035;-61
2023/04/16 01:25:45;;;;;;;4.88;1.70;;;10.50;1.00;;;;;;5120069;28;20395;-61
2023/04/16 01:28:11;;;;;;;5.72;1.55;;;10.50;1.50;;;;;;5119457;28;20406;-60
2023/04/16 01:30:37;;;;;;;3.83;1.60;;;10.50;1.70;;;;;;5119982;28;20308;-59
2023/04/16 01:33:23;;;;;;;4.43;1.50;;;10.50;4.60;;;;;;5119580;28;20035;-60
2023/04/16 01:35:48;;;;;;;3.22;1.33;;;10.40;7.10;;;;;;5119127;28;20403;-60
2023/04/16 01:38:15;;;;;;;5.00;1.65;;;10.30;12.60;;;;;;5119011;28;20028;-61
2023/04/16 01:40:41;;;;;;;3.40;1.35;;;10.40;12.40;;;;;;5119787;28;20035;-61
2023/04/16 01:43:06;;;;;;;3.70;1.42;;;10.40;12.10;;;;;;5119494;28;20419;-60
2023/04/16 01:45:34;;;;;;;3.00;1.33;;;10.50;9.30;;;;;;5119362;28;20039;-60
2023/04/16 01:48:00;;;;;;;4.55;1.27;;;10.40;14.90;;;;;;5119508;28;20031;-60
2023/04/16 01:50:26;;;;;;;4.15;1.35;;;10.50;9.20;;;;;;5119819;28;20272;-60
2023/04/16 01:52:52;;;;;;;2.78;1.40;;;10.60;4.40;;;;;;5119389;28;20031;-61
2023/04/16 01:55:18;;;;;;;6.07;1.77;;;10.60;8.80;;;;;;5119464;28;20184;-60
2023/04/16 01:57:44;;;;;;;3.95;1.50;;;10.50;9.80;;;;;;5119454;28;20405;-60
2023/04/16 02:00:11;;;;;;;7.30;1.65;;;10.50;12.10;;;;;;5118669;28;20031;-60
2023/04/16 02:02:44;;;;;;;4.68;1.90;;;10.60;8.30;;;;;;5119397;28;20028;-60
2023/04/16 02:05:13;;;;;;;12.90;2.05;;;10.60;11.70;;;;;;5118583;28;20028;-60
2023/04/16 02:07:39;;;;;;;6.40;1.90;;;10.60;11.40;;;;;;5101562;28;20383;-60
2023/04/16 02:10:06;;;;;;;7.10;2.08;;;10.60;12.40;;;;;;5118536;28;20403;-61
2023/04/16 02:12:33;;;;;;;3.88;2.28;;;10.70;10.50;;;;;;5118365;28;20115;-60
2023/04/16 02:14:59;;;;;;;4.95;2.00;;;10.70;12.50;;;;;;5118282;28;20118;-61
2023/04/16 02:17:26;;;;;;;3.90;1.80;;;10.60;16.10;;;;;;5118108;28;20036;-61
2023/04/16 02:20:07;;;;;;;4.85;2.13;;;10.60;17.00;;;;;;5119160;28;20286;-61
2023/04/16 02:22:35;;;;;;;4.55;2.67;;;10.50;19.90;;;;;;5118151;28;20020;-60
2023/04/16 02:25:00;;;;;;;6.30;2.22;;;10.60;19.20;;;;;;5118923;28;20043;-60
2023/04/16 02:27:26;;;;;;;7.88;2.60;;;10.70;17.60;;;;;;5118909;27;20118;-60
2023/04/16 02:29:58;;;;;;;4.30;2.60;;;10.70;19.20;;;;;;5118237;28;20035;-59
2023/04/16 02:32:24;;;;;;;9.07;2.25;;;10.60;22.80;;;;;;5117945;28;20134;-59
2023/04/16 02:34:50;;;;;;;6.93;2.35;;;10.60;26.30;;;;;;5117903;28;20417;-59
2023/04/16 02:37:16;;;;;;;6.45;2.70;;;10.70;23.80;;;;;;5100922;28;20035;-59
2023/04/16 02:39:42;;;;;;;5.60;2.50;;;10.70;24.00;;;;;;5118019;28;20046;-60
2023/04/16 02:42:08;;;;;;;4.97;2.70;;;10.60;27.80;;;;;;5117638;28;20055;-59
2023/04/16 02:44:34;;;;;;;6.10;2.72;;;10.60;29.90;;;;;;5117792;28;20290;-59
2023/04/16 02:47:00;;;;;;;8.05;3.03;;;10.60;33.10;;;;;;5100700;28;20088;-59
2023/04/16 02:49:26;;;;;;;7.63;2.83;;;10.60;32.80;;;;;;5117677;28;20417;-60
2023/04/16 02:51:52;;;;;;;7.13;2.20;;;10.60;32.00;;;;;;5117582;28;20039;-61
2023/04/16 02:54:17;;;;;;;8.13;2.53;;;10.60;31.30;;;;;;5117447;28;20028;-60
2023/04/16 02:56:43;;;;;;;7.82;2.75;;;10.70;28.30;;;;;;5118268;28;20027;-58
2023/04/16 02:59:09;;;;;;;7.35;2.60;;;10.70;28.50;;;;;;5117458;28;20035;-61
2023/04/16 03:01:35;;;;;;;5.68;2.83;;;10.60;31.70;;;;;;5100509;28;20289;-60
2023/04/16 03:04:01;;;;;;;7.50;3.03;;;10.50;34.30;;;;;;5118392;28;20035;-60
2023/04/16 03:06:26;;;;;;;7.80;2.95;;;10.40;40.30;;;;;;5118134;28;20063;-60
2023/04/16 03:08:53;;;;;;;5.93;2.55;;;10.40;39.20;;;;;;5118196;28;20035;-60
2023/04/16 03:11:19;;;;;;;6.40;2.60;;;10.50;39.90;;;;;;5118018;28;20456;-60
2023/04/16 03:13:45;;;;;;;7.45;2.72;;;10.50;39.20;;;;;;5117184;28;20048;-60
2023/04/16 03:16:11;;;;;;;8.43;2.65;;;10.50;41.80;;;;;;5100253;28;20028;-60
2023/04/16 03:18:36;;;;;;;6.28;2.70;;;10.50;40.40;;;;;;5118008;28;20112;-60
2023/04/16 03:21:02;;;;;;;6.97;2.88;;;10.50;41.50;;;;;;5117235;28;20039;-60
2023/04/16 03:23:29;;;;;;;7.72;2.80;;;10.50;42.70;;;;;;5117857;28;20082;-60
2023/04/16 03:25:55;;;;;;;8.90;2.72;;;10.50;47.80;;;;;;5117823;28;20034;-60
2023/04/16 03:28:21;;;;;;;7.38;2.90;;;10.50;50.30;;;;;;5117767;28;20303;-60
2023/04/16 03:30:51;;;;;;;5.47;2.75;;;10.50;50.40;;;;;;5117541;28;20103;-60
2023/04/16 03:33:18;;;;;;;7.97;3.08;;;10.50;51.50;;;;;;5116794;28;20092;-60
2023/04/16 03:35:43;;;;;;;7.65;2.80;;;10.50;48.90;;;;;;5116921;28;20030;-60
2023/04/16 03:38:09;;;;;;;6.90;3.00;;;10.40;50.10;;;;;;5117419;28;20028;-60
2023/04/16 03:40:35;;;;;;;5.35;2.92;;;10.40;52.40;;;;;;5117490;28;20038;-61
2023/04/16 03:43:01;;;;;;;6.45;3.13;;;10.50;50.60;;;;;;5116592;28;20043;-61
2023/04/16 03:45:27;;;;;;;9.55;3.33;;;10.40;48.40;;;;;;5116824;28;20055;-61
2023/04/16 03:47:53;;;;;;;6.95;2.97;;;10.40;51.00;;;;;;5116613;28;20032;-59
2023/04/16 03:50:22;;;;;;;6.53;3.05;;;10.40;50.50;;;;;;5100171;28;20443;-62
2023/04/16 03:52:48;;;;;;;9.25;3.10;;;10.50;47.60;;;;;;5116936;28;20102;-61
2023/04/16 03:55:15;;;;;;;4.90;2.80;;;10.50;45.30;;;;;;5116680;28;20043;-61
2023/04/16 03:57:41;;;;;;;5.45;2.70;;;10.40;46.60;;;;;;5099629;28;20027;-61
2023/04/16 04:00:11;;;;;;;7.80;2.78;;;10.40;49.00;;;;;;5100136;28;20367;-61
2023/04/16 04:02:59;;;;;;;6.15;2.60;;;10.30;49.80;;;;;;5116690;28;20360;-62
2023/04/16 04:05:26;;;;;;;4.78;2.58;;;10.40;49.30;;;;;;5117409;28;20034;-61
2023/04/16 04:07:52;;;;;;;3.92;2.17;;;10.40;46.10;;;;;;5099678;28;20358;-61
2023/04/16 04:10:18;;;;;;;5.95;2.70;;;10.40;46.30;;;;;;5116559;28;20027;-61
2023/04/16 04:12:44;;;;;;;5.78;2.72;;;10.40;45.70;;;;;;5099530;28;20046;-61
2023/04/16 04:15:11;;;;;;;7.03;2.53;;;10.40;46.40;;;;;;5117415;28;20031;-61
2023/04/16 04:17:37;;;;;;;4.60;2.67;;;10.40;44.90;;;;;;5116657;28;20040;-61
2023/04/16 04:20:03;;;;;;;6.82;2.47;;;10.40;45.30;;;;;;5116558;28;20450;-62
2023/04/16 04:22:30;;;;;;;5.80;1.95;;;10.40;47.00;;;;;;5116381;28;20123;-62
2023/04/16 04:24:56;;;;;;;4.57;2.03;;;10.40;49.10;;;;;;5116417;28;20119;-61
2023/04/16 04:27:22;;;;;;;6.10;2.00;;;10.30;52.80;;;;;;5116461;28;20038;-61
2023/04/16 04:29:48;;;;;;;5.38;2.03;;;10.50;50.20;;;;;;5117172;28;20035;-61
2023/04/16 04:32:13;;;;;;;5.72;2.30;;;10.50;48.00;;;;;;5117301;28;20024;-61
2023/04/16 04:34:39;;;;;;;4.63;2.13;;;10.50;47.10;;;;;;5117310;28;20035;-61
2023/04/16 04:37:07;;;;;;;7.40;2.75;;;10.40;51.50;;;;;;5116342;28;20035;-61
2023/04/16 04:39:32;;;;;;;5.53;2.28;;;10.30;55.50;;;;;;5099389;28;20080;-61
2023/04/16 04:42:02;;;;;;;5.38;2.20;;;10.40;53.60;;;;;;5100306;28;20054;-61
2023/04/16 04:44:27;;;;;;;4.75;1.98;;;10.40;52.60;;;;;;5120173;28;20031;-61
2023/04/16 04:46:53;;;;;;;6.10;1.90;;;10.40;54.30;;;;;;5103141;28;20092;-61
2023/04/16 04:49:19;;;;;;;5.88;1.92;;;10.40;51.80;;;;;;5119997;28;20209;-61
2023/04/16 04:51:46;;;;;;;6.53;2.20;;;10.40;55.00;;;;;;5120031;28;20039;-61
2023/04/16 04:54:12;;;;;;;5.20;2.20;;;10.40;52.60;;;;;;5120695;27;20088;-61
2023/04/16 04:56:38;;;;;;;6.20;2.58;;;10.50;49.90;;;;;;5103050;28;20027;-61
2023/04/16 04:59:04;;;;;;;5.35;2.17;;;10.50;46.40;;;;;;5120766;28;20100;-61
2023/04/16 05:01:30;;;;;;;3.40;2.10;;;10.50;48.70;;;;;;5119757;28;20023;-61
2023/04/16 05:03:56;;;;;;;3.20;1.80;;;10.50;44.90;;;;;;5120650;27;20398;-61
2023/04/16 05:06:22;;;;;;;3.92;2.30;;;10.50;45.30;;;;;;5102702;28;20429;-62
2023/04/16 05:08:47;;;;;;;6.40;2.33;;;10.50;49.60;;;;;;5102763;28;20027;-61
2023/04/16 05:11:13;;;;;;;3.92;2.05;;;10.50;50.80;;;;;;5119587;28;20035;-61
2023/04/16 05:13:40;;;;;;;10.38;3.22;;;10.50;49.40;;;;;;5119516;28;20038;-61
2023/04/16 05:16:10;;;;;;;6.10;2.92;;;10.50;48.60;;;;;;5119504;28;20028;-61
2023/04/16 05:18:37;;;;;;;5.35;2.80;;;10.50;51.40;;;;;;5120196;28;20035;-61
2023/04/16 05:21:03;;;;;;;10.52;3.13;;;10.50;51.30;;;;;;5119366;28;20024;-61
2023/04/16 05:23:28;;;;;;;5.28;2.55;;;10.40;55.30;;;;;;5119020;28;20118;-61
2023/04/16 05:25:54;;;;;;;3.58;2.60;;;10.40;57.10;;;;;;5119635;28;20031;-61
2023/04/16 05:28:20;;;;;;;4.47;2.40;;;10.50;56.90;;;;;;5119495;28;20036;-61
2023/04/16 05:30:46;;;;;;;3.95;2.88;;;10.40;59.80;;;;;;5119716;28;20063;-60
2023/04/16 05:33:12;;;;;;;6.45;3.05;;;10.40;63.40;;;;;;5119536;28;20028;-61
2023/04/16 05:35:37;;;;;;;7.20;3.40;;;10.40;65.50;;;;;;5119609;28;20028;-61
2023/04/16 05:38:03;;;;;;;7.75;3.47;;;10.40;73.80;;;;;;5118758;28;20039;-62
2023/04/16 05:40:30;;;;;;;8.55;3.60;;;10.30;73.90;;;;;;5119576;28;20121;-63
2023/04/16 05:42:56;;;;;;;6.20;3.33;;;10.20;80.00;;;;;;5119288;28;20095;-62
2023/04/16 05:45:22;;;;;;;5.63;3.67;;;10.10;86.30;;;;;;5119344;28;20399;-63
2023/04/16 05:47:47;;;;;;;6.40;3.85;;;10.00;90.00;;;;;;5119416;28;20047;-63
2023/04/16 05:50:13;;;;;;;8.23;4.10;;;10.00;92.80;;;;;;5119377;28;20027;-62
2023/04/16 05:52:39;;;;;;;8.27;3.78;;;10.10;91.40;;;;;;5118993;28;20031;-62
2023/04/16 05:55:05;;;;;;;10.27;3.40;;;10.20;89.20;;;;;;5101603;28;20114;-62
2023/04/16 05:57:32;;;;;;;7.03;3.90;;;10.30;82.20;;;;;;5119610;27;20027;-62
2023/04/16 05:59:58;;;;;;;9.77;3.60;;;10.30;82.80;;;;;;5119469;28;20055;-62
2023/04/16 06:02:24;;;;;;;6.93;3.70;;;10.20;89.50;;;;;;5119589;28;20335;-62
2023/04/16 06:04:50;;;;;;;8.27;3.63;;;10.20;87.30;;;;;;5119524;28;20039;-62
2023/04/16 06:07:15;;;;;;;7.30;3.35;;;10.20;86.90;;;;;;5120068;28;20375;-63
2023/04/16 06:09:41;;;;;;;9.85;4.32;;;10.20;87.10;;;;;;5119256;28;20035;-63
2023/04/16 06:12:07;;;;;;;9.05;3.78;;;10.20;87.90;;;;;;5119441;28;20062;-62
2023/04/16 06:14:33;;;;;;;6.18;3.88;;;10.20;87.30;;;;;;5119456;28;20118;-64
2023/04/16 06:16:59;;;;;;;8.55;3.70;;;10.20;84.50;;;;;;5119598;28;20119;-64
2023/04/16 06:19:24;;;;;;;5.78;3.45;;;10.30;80.90;;;;;;5118737;28;20272;-64
2023/04/16 06:21:51;;;;;;;9.48;3.95;;;10.30;84.70;;;;;;5119089;28;20453;-64
2023/04/16 06:24:17;;;;;;;5.57;3.55;;;10.30;83.80;;;;;;5118842;28;20077;-61
2023/04/16 06:26:43;;;;;;;7.93;3.67;;;10.30;83.80;;;;;;5118211;28;20051;-62
2023/04/16 06:29:10;;;;;;;9.10;4.35;;;10.30;84.80;;;;;;5118877;28;20043;-62
2023/04/16 06:31:36;;;;;;;7.88;4.55;;;10.30;89.10;;;;;;5118859;28;20305;-61
2023/04/16 06:34:02;;;;;;;8.07;4.65;;;10.30;90.70;;;;;;5101066;28;20031;-61
2023/04/16 06:36:28;;;;;;;10.27;4.70;;;10.20;90.70;;;;;;5118730;28;20051;-60
2023/04/16 06:38:54;;;;;;;8.98;4.97;;;10.10;93.00;;;;;;5117928;28;20390;-60
2023/04/16 06:41:21;;;;;;;12.82;4.80;;;10.20;94.70;;;;;;5118683;28;20387;-59
2023/04/16 06:43:47;;;;;;;7.85;4.63;;;10.30;94.70;;;;;;5118366;28;20386;-61
2023/04/16 06:46:13;;;;;;;11.35;5.05;;;10.20;95.20;;;;;;5117733;28;20171;-63
2023/04/16 06:48:38;;;;;;;6.95;4.78;;;10.30;94.20;;;;;;5118492;28;20295;-62
2023/04/16 06:51:04;;;;;;;7.32;4.22;;;10.10;96.40;;;;;;5118507;28;20027;-61
2023/04/16 06:53:30;;;;;;;11.93;5.40;;;10.10;97.90;;;;;;5118204;28;20036;-61
2023/04/16 06:55:56;;;;;;;10.13;5.05;;;10.20;98.00;;;;;;5118280;27;20035;-62
2023/04/16 06:58:22;;;;;;;8.90;5.20;;;10.20;98.70;;;;;;5118240;28;20023;-62
2023/04/16 07:00:48;;;;;;;6.35;4.75;;;10.20;98.70;;;;;;5117516;28;20020;-62
2023/04/16 07:03:14;;;;;;;13.82;5.15;;;10.10;99.70;;;;;;5117588;28;20039;-63
2023/04/16 07:05:42;;;;;;;10.90;5.40;;;10.20;99.90;;;;;;5117373;28;20112;-62
2023/04/16 07:08:09;;;;;;;12.02;5.40;;;10.20;99.90;;;;;;5117522;28;20081;-62
2023/04/16 07:10:35;;;;;;;9.15;5.20;;;10.20;99.90;;;;;;5118059;28;20035;-63
2023/04/16 07:13:01;;;;;;;13.35;5.78;;;10.20;99.90;;;;;;5117228;28;20306;-63
2023/04/16 07:15:27;;;;;;;13.25;5.68;;;10.10;99.90;;;;;;5118038;28;20036;-63
2023/04/16 07:17:52;;;;;;;15.18;5.80;;;10.10;99.90;;;;;;5117998;28;20023;-65
2023/04/16 07:20:18;;;;;;;13.27;6.15;;;10.20;99.90;;;;;;5117277;28;20072;-64
2023/04/16 07:22:44;;;;;;;9.80;6.32;;;10.10;99.90;;;;;;5117158;28;20092;-63
2023/04/16 07:25:10;;;;;;;19.45;6.78;;;10.20;99.90;;;;;;5118137;28;20106;-63
2023/04/16 07:27:36;;;;;;;19.73;7.45;;;10.10;99.90;;;;;;5100046;28;20027;-64
2023/04/16 07:30:02;;;;;;;14.32;7.70;;;10.10;99.90;;;;;;5117467;28;20051;-63
2023/04/16 07:32:28;;;;;;;15.75;7.00;;;10.10;99.90;;;;;;5117076;28;20035;-63
2023/04/16 07:34:55;;;;;;;14.45;7.30;;;10.10;99.90;;;;;;5117525;28;20039;-63
2023/04/16 07:37:20;;;;;;;16.77;7.93;;;10.30;99.90;;;;;;5083123;28;20400;-63
2023/04/16 07:39:46;;;;;;;15.70;8.15;;;10.30;99.90;;;;;;5116907;28;20035;-64
2023/04/16 07:42:12;;;;;;;15.32;9.07;;;10.40;99.90;;;;;;5117772;28;20130;-63
2023/04/16 07:44:38;;;;;;;18.73;9.10;;;10.30;99.90;;;;;;5116691;28;20031;-65
2023/04/16 07:47:04;;;;;;;18.52;9.23;;;10.40;99.90;;;;;;5117697;28;20050;-65
2023/04/16 07:49:30;;;;;;;15.88;8.35;;;10.40;99.90;;;;;;5116692;28;20064;-64
2023/04/16 07:51:56;;;;;;;18.25;8.65;;;10.40;99.90;;;;;;5082934;28;20024;-65
2023/04/16 07:54:22;;;;;;;18.92;8.40;;;10.50;99.90;;;;;;5099581;28;20071;-64
2023/04/16 07:56:47;;;;;;;19.55;8.52;;;10.50;99.90;;;;;;5117494;28;20059;-65
2023/04/16 07:59:13;;;;;;;18.15;7.97;;;10.50;99.60;;;;;;5117356;28;20355;-66
2023/04/16 08:01:40;;;;;;;14.82;7.75;;;10.50;97.20;;;;;;5116390;28;20028;-66
2023/04/16 08:04:06;;;;;;;15.45;8.18;;;10.60;97.30;;;;;;5099627;28;20354;-66
2023/04/16 08:06:32;;;;;;;15.23;7.95;;;10.60;95.30;;;;;;5117170;28;20051;-65
2023/04/16 08:08:57;;;;;;;16.30;8.50;;;10.60;95.40;;;;;;5099656;28;20118;-66
2023/04/16 08:11:23;;;;;;;15.70;8.50;;;10.60;98.50;;;;;;5116381;28;20043;-65
2023/04/16 08:13:49;;;;;;;17.42;8.50;;;10.60;98.60;;;;;;5116466;28;20027;-64
2023/04/16 08:16:15;;;;;;;18.77;8.05;;;10.60;97.50;;;;;;5117931;28;20092;-64
2023/04/16 08:18:41;;;;;;;16.35;8.05;;;10.60;95.40;;;;;;5121389;28;20024;-66
2023/04/16 08:21:07;;;;;;;15.45;8.25;;;10.60;95.40;;;;;;5121389;28;20100;-65
2023/04/16 08:23:33;;;;;;;20.42;7.57;;;10.60;95.90;;;;;;5120722;28;20028;-65
2023/04/16 08:26:00;;;;;;;16.50;8.15;;;10.70;95.70;;;;;;5120551;28;20046;-66
2023/04/16 08:28:25;;;;;;;12.98;7.90;;;10.70;95.80;;;;;;5086730;28;20045;-64
2023/04/16 08:30:51;;;;;;;15.77;7.38;;;10.70;95.40;;;;;;5120586;28;20035;-64
2023/04/16 08:33:18;;;;;;;12.10;7.55;;;10.70;95.30;;;;;;5120414;28;20035;-63
2023/04/16 08:35:44;;;;;;;17.27;8.80;;;10.70;98.10;;;;;;5120376;28;20028;-64
2023/04/16 08:38:10;;;;;;;14.80;7.95;;;10.70;99.80;;;;;;5120579;28;20024;-64
2023/04/16 08:40:40;;;;;;;14.70;8.15;;;10.70;97.50;;;;;;5086471;28;20032;-64
2023/04/16 08:43:12;;;;;;;21.40;7.97;;;10.70;95.60;;;;;;5120878;28;20047;-63
2023/04/16 08:45:41;;;;;;;15.05;8.02;;;10.80;94.90;;;;;;5120796;28;20379;-64
2023/04/16 08:48:10;;;;;;;18.27;8.23;;;10.80;93.70;;;;;;5103163;28;20039;-63
2023/04/16 08:50:37;;;;;;;18.40;8.27;;;10.80;91.90;;;;;;5120815;28;20032;-63
2023/04/16 08:53:05;;;;;;;17.80;8.00;;;11.00;90.30;;;;;;5119913;28;20027;-63
2023/04/16 08:55:47;;;;;;;21.05;8.10;;;10.90;89.90;;;;;;5120726;27;20031;-63
2023/04/16 08:58:15;;;;;;;16.77;7.68;;;10.90;90.30;;;;;;5120560;28;20129;-63
2023/04/16 09:00:42;;;;;;;13.23;7.00;;;10.90;90.20;;;;;;5120510;28;20062;-63
2023/04/16 09:03:11;;;;;;;14.10;7.18;;;10.80;91.30;;;;;;5120264;28;20039;-63
2023/04/16 09:05:37;;;;;;;14.13;7.55;;;10.90;91.40;;;;;;5103021;28;20032;-62
2023/04/16 09:08:06;;;;;;;17.60;7.82;;;11.00;90.40;;;;;;5120362;28;20020;-62
2023/04/16 09:10:33;;;;;;;16.65;7.38;;;11.10;89.50;;;;;;5102471;28;20035;-63
2023/04/16 09:12:59;;;;;;;14.73;6.70;;;11.10;90.30;;;;;;5119633;28;20027;-63
2023/04/16 09:15:25;;;;;;;16.90;7.93;;;11.10;90.70;;;;;;5119545;28;20080;-64
2023/04/16 09:17:51;;;;;;;19.27;7.10;;;11.20;81.90;;;;;;5102635;28;20028;-63
2023/04/16 09:20:18;;;;;;;19.83;7.63;;;11.30;78.10;;;;;;5120583;28;20039;-63
2023/04/16 09:22:45;;;;;;;11.70;6.88;;;11.30;78.60;;;;;;5119411;28;20024;-65
2023/04/16 09:25:12;;;;;;;13.32;6.65;;;11.20;80.00;;;;;;5120133;27;20024;-63
2023/04/16 09:27:38;;;;;;;13.38;7.13;;;11.20;81.10;;;;;;5119232;28;20020;-64
2023/04/16 09:30:24;;;;;;;20.90;7.57;;;11.20;80.20;;;;;;5120087;28;20092;-63
2023/04/16 09:32:51;;;;;;;12.63;7.30;;;11.20;82.50;;;;;;5119364;28;20028;-63
2023/04/16 09:35:18;;;;;;;13.35;7.18;;;11.30;84.80;;;;;;5120285;28;20038;-63
2023/04/16 09:37:56;;;;;;;14.35;7.40;;;11.40;78.30;;;;;;5119952;28;20088;-64
2023/04/16 09:40:26;;;;;;;14.27;7.15;;;11.40;79.70;;;;;;5120153;28;20027;-64
2023/04/16 09:42:55;;;;;;;16.55;7.25;;;11.40;77.40;;;;;;5118936;28;20085;-62
2023/04/16 09:45:21;;;;;;;11.77;7.25;;;11.40;78.30;;;;;;5118822;28;20111;-64
2023/04/16 09:47:46;;;;;;;14.70;7.72;;;11.30;80.20;;;;;;5119069;28;20127;-64
2023/04/16 09:50:17;;;;;;;11.63;7.53;;;11.30;78.60;;;;;;5101916;28;20031;-63
2023/04/16 09:52:47;;;;;;;13.73;7.90;;;11.30;80.30;;;;;;5118767;28;20031;-65
2023/04/16 09:55:12;;;;;;;14.32;7.80;;;11.50;78.70;;;;;;5119631;27;20031;-63
2023/04/16 09:57:39;;;;;;;14.02;7.85;;;11.40;74.60;;;;;;5119582;28;20035;-63
2023/04/16 10:00:07;;;;;;;13.32;8.45;;;11.40;78.90;;;;;;5119882;28;20034;-64
2023/04/16 10:02:34;;;;;;;13.80;7.55;;;11.40;78.40;;;;;;5119227;28;20027;-65
2023/04/16 10:05:03;;;;;;;14.65;7.38;;;11.40;81.90;;;;;;5119695;28;20306;-63
2023/04/16 10:07:32;;;;;;;13.55;7.50;;;11.40;76.80;;;;;;5119321;28;20114;-64
2023/04/16 10:09:58;;;;;;;14.35;8.23;;;11.30;76.70;;;;;;5119271;28;20027;-63
2023/04/16 10:12:26;;;;;;;15.45;7.60;;;11.40;77.60;;;;;;5119285;28;20042;-65
2023/04/16 10:14:51;;;;;;;15.80;8.25;;;11.40;81.00;;;;;;5118368;28;20137;-64
2023/04/16 10:17:18;;;;;;;15.45;7.60;;;11.50;80.00;;;;;;5119178;28;20039;-63
2023/04/16 10:19:45;;;;;;;15.68;8.48;;;11.50;82.40;;;;;;5119023;28;20024;-63
2023/04/16 10:22:11;;;;;;;13.70;7.55;;;11.60;85.90;;;;;;5118195;28;20020;-63
2023/04/16 10:24:37;;;;;;;12.85;7.13;;;11.70;79.40;;;;;;5119139;28;20103;-64
2023/04/16 10:27:03;;;;;;;12.50;7.20;;;11.80;75.60;;;;;;5101393;28;20115;-63
2023/04/16 10:29:30;;;;;;;19.83;7.60;;;12.00;69.40;;;;;;5118928;28;20114;-63
2023/04/16 10:31:57;;;;;;;12.02;7.55;;;12.00;63.00;;;;;;5118950;28;20019;-63
2023/04/16 10:34:24;;;;;;;13.38;7.35;;;12.00;61.20;;;;;;5118803;28;20024;-64
2023/04/16 10:36:52;;;;;;;17.15;7.80;;;11.90;63.80;;;;;;5118121;28;20020;-64
2023/04/16 10:39:23;;;;;;;13.38;7.75;;;11.80;63.70;;;;;;5118707;28;20390;-63
2023/04/16 10:42:05;;;;;;;14.20;8.30;;;11.90;68.50;;;;;;5118660;28;20056;-64
2023/04/16 10:44:31;;;;;;;14.27;8.25;;;12.00;69.60;;;;;;5118669;28;20385;-63
2023/04/16 10:46:58;;;;;;;13.30;8.48;;;11.90;63.90;;;;;;5118517;28;20023;-63
2023/04/16 10:49:25;;;;;;;13.85;9.13;;;12.10;63.10;;;;;;5118500;28;20024;-63
2023/04/16 10:51:58;;;;;;;11.20;8.23;;;12.20;61.40;;;;;;5117883;28;20315;-63
2023/04/16 10:54:29;;;;;;;15.27;9.02;;;12.20;55.50;;;;;;5117708;28;20329;-63
2023/04/16 10:56:56;;;;;;;14.27;8.75;;;12.10;56.40;;;;;;5118435;28;20061;-64
2023/04/16 10:59:23;;;;;;;12.95;8.85;;;12.10;52.80;;;;;;5118324;28;20303;-63
2023/04/16 11:01:58;;;;;;;14.52;8.45;;;12.10;54.60;;;;;;5118298;28;20299;-64
2023/04/16 11:04:24;;;;;;;12.77;8.75;;;12.10;53.70;;;;;;5117738;28;20027;-64
2023/04/16 11:07:06;;;;;;;16.13;9.57;;;12.00;60.10;;;;;;5117460;28;20039;-65
2023/04/16 11:09:46;;;;;;;14.80;9.25;;;12.00;66.50;;;;;;5118096;28;20414;-64
2023/04/16 11:12:19;;;;;;;19.05;9.25;;;12.10;70.30;;;;;;5118146;28;20031;-64
2023/04/16 11:14:53;;;;;;;13.82;9.80;;;12.10;67.60;;;;;;5118234;28;20319;-64
2023/04/16 11:17:20;;;;;;;15.20;9.63;;;12.20;66.20;;;;;;5118077;28;20088;-64
2023/04/16 11:19:46;;;;;;;13.82;9.48;;;12.20;60.30;;;;;;5117966;28;20438;-65
2023/04/16 11:22:16;;;;;;;15.57;9.63;;;12.20;60.00;;;;;;5117842;28;20051;-64
2023/04/16 11:24:46;;;;;;;13.50;9.73;;;12.20;64.80;;;;;;5117844;28;20412;-65
2023/04/16 11:27:14;;;;;;;13.25;9.50;;;12.20;64.20;;;;;;5118065;28;20418;-65
2023/04/16 11:29:43;;;;;;;10.52;8.38;;;12.30;65.20;;;;;;5118330;28;20120;-64
2023/04/16 11:32:09;;;;;;;15.25;9.23;;;12.30;58.60;;;;;;5117013;28;20140;-63
2023/04/16 11:34:45;;;;;;;15.10;9.23;;;12.40;52.20;;;;;;5118223;28;20047;-64
2023/04/16 11:37:11;;;;;;;14.18;8.23;;;12.40;47.90;;;;;;5116954;28;20027;-63
2023/04/16 11:39:52;;;;;;;12.38;8.23;;;12.40;52.20;;;;;;5117622;28;20016;-64
2023/04/16 11:42:20;;;;;;;15.75;8.30;;;12.30;54.20;;;;;;5117559;28;20040;-64
2023/04/16 11:44:50;;;;;;;15.23;8.40;;;12.30;54.80;;;;;;5117563;28;20359;-64
2023/04/16 11:47:16;;;;;;;16.95;9.00;;;12.40;56.10;;;;;;5116788;28;20043;-64
2023/04/16 11:49:41;;;;;;;15.65;8.02;;;12.40;50.10;;;;;;5099816;28;20027;-63
2023/04/16 11:52:07;;;;;;;12.05;8.43;;;12.50;44.00;;;;;;5117070;28;20046;-64
2023/04/16 11:54:33;;;;;;;15.07;8.35;;;12.40;45.50;;;;;;5117354;28;20084;-63
2023/04/16 11:56:59;;;;;;;14.52;8.90;;;12.20;56.90;;;;;;5117377;28;20040;-64
2023/04/16 11:59:26;;;;;;;13.95;7.93;;;12.30;58.40;;;;;;5116556;28;20116;-64
2023/04/16 12:01:54;;;;;;;15.57;8.30;;;12.30;60.00;;;;;;5117341;28;20036;-64
2023/04/16 12:04:23;;;;;;;13.60;8.50;;;12.40;60.90;;;;;;5117279;28;20028;-65
2023/04/16 12:07:12;;;;;;;13.27;8.02;;;12.70;57.00;;;;;;5100090;28;20035;-63
2023/04/16 12:09:43;;;;;;;13.95;9.00;;;12.90;46.90;;;;;;5117329;28;20031;-63
2023/04/16 12:12:27;;;;;;;12.43;8.23;;;13.00;43.40;;;;;;5117292;28;20042;-64
2023/04/16 12:14:55;;;;;;;16.40;8.60;;;13.30;36.40;;;;;;5117167;28;20028;-64
2023/04/16 12:17:21;;;;;;;11.45;7.85;;;13.40;20.30;;;;;;5117178;28;20023;-64
2023/04/16 12:19:58;;;;;;;15.30;8.32;;;13.30;23.40;;;;;;5116458;28;20031;-64
2023/04/16 12:22:35;;;;;;;12.68;7.63;;;13.50;21.10;;;;;;5116422;28;20032;-64
2023/04/16 12:25:06;;;;;;;17.13;7.57;;;13.50;12.80;;;;;;5116386;28;20110;-64
2023/04/16 12:27:47;;;;;;;11.77;6.53;;;13.50;16.90;;;;;;5116377;28;20046;-64
2023/04/16 12:30:15;;;;;;;11.88;6.88;;;13.50;15.10;;;;;;5117603;28;20040;-64
2023/04/16 12:32:42;;;;;;;13.40;6.88;;;13.50;13.60;;;;;;5116906;28;20074;-66
2023/04/16 12:35:09;;;;;;;14.13;6.75;;;13.60;17.90;;;;;;5116896;28;20036;-65
2023/04/16 12:37:36;;;;;;;11.65;6.95;;;13.50;9.00;;;;;;5116604;28;20304;-65
2023/04/16 12:40:03;;;;;;;15.00;7.40;;;13.50;7.90;;;;;;5099434;28;20338;-64
2023/04/16 12:42:34;;;;;;;10.05;6.20;;;13.60;9.60;;;;;;5116137;28;20047;-63